Time;durP1;ratioP1;P1;durP2;ratioP2;P2;SDS_P1;SDS_P2;PMS_P1;PMS_P2;Temp;Humidity;BMP_temperature;BMP_pressure;BME280_temperature;BME280_humidity;BME280_pressure;Samples;Min_cycle;Max_cycle;Signal;HPM_P1;HPM_P2
2023/01/06 00:00:26;;;;;;;9.73;2.53;;;;;;;3.67;61.61;101464.19;6274720;22;20042;-67
2023/01/06 00:02:52;;;;;;;8.90;2.45;;;;;;;3.74;61.44;101468.16;6274819;22;20027;-67
2023/01/06 00:05:19;;;;;;;9.95;2.53;;;;;;;3.75;61.54;101467.19;6276288;22;20019;-67
2023/01/06 00:07:50;;;;;;;13.00;2.42;;;;;;;3.63;61.26;101475.00;6274902;22;20051;-67
2023/01/06 00:10:16;;;;;;;10.07;2.10;;;;;;;3.72;61.21;101464.75;6274890;22;20390;-67
2023/01/06 00:12:44;;;;;;;12.57;2.55;;;;;;;3.36;61.63;101471.41;6275230;22;20153;-67
2023/01/06 00:15:11;;;;;;;9.95;2.15;;;;;;;3.59;61.79;101470.00;6273694;22;20043;-68
2023/01/06 00:17:38;;;;;;;8.00;2.08;;;;;;;3.59;61.51;101472.66;6275623;22;20098;-67
2023/01/06 00:20:05;;;;;;;10.63;2.78;;;;;;;3.67;61.32;101462.38;6275840;22;20094;-67
2023/01/06 00:22:32;;;;;;;9.40;2.75;;;;;;;3.59;61.46;101468.19;6275855;22;20497;-67
2023/01/06 00:24:58;;;;;;;6.05;2.40;;;;;;;3.05;62.38;101467.13;6274482;22;20031;-67
2023/01/06 00:27:25;;;;;;;17.15;2.90;;;;;;;2.42;64.59;101462.94;6274819;22;20456;-67
2023/01/06 00:29:52;;;;;;;14.65;3.30;;;;;;;2.88;63.98;101457.56;6275286;22;20012;-66
2023/01/06 00:32:18;;;;;;;9.90;2.63;;;;;;;2.65;64.73;101449.19;6274898;22;20047;-66
2023/01/06 00:34:45;;;;;;;13.10;2.75;;;;;;;3.02;64.06;101451.41;6274114;22;20020;-66
2023/01/06 00:37:11;;;;;;;10.93;2.90;;;;;;;3.01;63.98;101447.06;6274507;22;20094;-67
2023/01/06 00:39:38;;;;;;;7.53;2.72;;;;;;;2.58;64.78;101454.94;6276153;22;20474;-66
2023/01/06 00:42:05;;;;;;;9.60;2.78;;;;;;;2.73;64.79;101454.03;6275052;22;20035;-66
2023/01/06 00:44:34;;;;;;;10.82;2.83;;;;;;;3.02;63.69;101459.38;6275889;22;20043;-67
2023/01/06 00:47:02;;;;;;;11.95;3.05;;;;;;;3.07;63.73;101450.22;6274575;22;20099;-66
2023/01/06 00:49:28;;;;;;;12.38;3.05;;;;;;;3.14;63.73;101458.63;6276125;22;20019;-68
2023/01/06 00:51:54;;;;;;;19.50;3.65;;;;;;;3.23;63.11;101459.84;6274950;22;20098;-68
2023/01/06 00:54:21;;;;;;;9.75;3.42;;;;;;;2.93;63.14;101454.63;6274831;22;20045;-67
2023/01/06 00:56:50;;;;;;;17.75;4.25;;;;;;;2.70;64.41;101451.56;6272616;22;20019;-69
2023/01/06 00:59:24;;;;;;;14.75;3.85;;;;;;;2.74;63.84;101458.38;6274644;22;20047;-68
2023/01/06 01:01:53;;;;;;;12.23;3.20;;;;;;;2.29;65.97;101460.13;6274972;22;20019;-68
2023/01/06 01:04:20;;;;;;;11.68;3.30;;;;;;;2.51;65.55;101458.88;6275771;22;20031;-66
2023/01/06 01:06:48;;;;;;;18.10;3.17;;;;;;;2.16;66.55;101456.47;6275263;22;20020;-67
2023/01/06 01:09:42;;;;;;;17.15;3.50;;;;;;;2.12;66.95;101457.59;6275118;22;20043;-66
2023/01/06 01:12:10;;;;;;;11.50;2.40;;;;;;;2.68;65.15;101456.09;6269250;22;20352;-68
2023/01/06 01:14:49;;;;;;;7.65;2.88;;;;;;;2.72;64.79;101452.34;6274015;22;20475;-68
2023/01/06 01:17:19;;;;;;;8.18;2.72;;;;;;;2.67;65.19;101449.09;6275189;22;20023;-67
2023/01/06 01:19:47;;;;;;;9.55;2.88;;;;;;;2.80;64.38;101447.41;6275018;22;20111;-68
2023/01/06 01:22:13;;;;;;;14.35;3.40;;;;;;;2.65;64.68;101440.38;6275503;22;20094;-67
2023/01/06 01:24:40;;;;;;;13.18;2.90;;;;;;;2.77;64.36;101436.16;6274797;22;20099;-67
2023/01/06 01:27:07;;;;;;;9.75;2.97;;;;;;;2.83;64.58;101441.94;6276650;22;20099;-68
2023/01/06 01:29:33;;;;;;;8.40;3.28;;;;;;;2.73;64.30;101437.28;6274762;22;20020;-66
2023/01/06 01:32:00;;;;;;;13.52;3.05;;;;;;;2.68;64.52;101424.28;6274334;22;20027;-67
2023/01/06 01:34:26;;;;;;;10.85;2.30;;;;;;;2.72;63.91;101428.50;6275516;22;20118;-68
2023/01/06 01:36:53;;;;;;;8.65;2.40;;;;;;;2.04;65.85;101423.63;6274715;22;20034;-67
2023/01/06 01:39:23;;;;;;;10.90;2.20;;;;;;;2.50;64.72;101436.84;6273976;22;20094;-68
2023/01/06 01:41:50;;;;;;;9.85;2.30;;;;;;;2.15;65.93;101429.16;6274987;22;20104;-68
2023/01/06 01:44:50;;;;;;;9.02;2.00;;;;;;;2.45;65.15;101427.50;6275102;22;20030;-68
2023/01/06 01:47:20;;;;;;;8.13;2.47;;;;;;;2.37;65.25;101434.09;6274183;22;20012;-66
2023/01/06 01:49:51;;;;;;;6.95;2.20;;;;;;;2.11;66.26;101424.16;6248818;22;20102;-67
2023/01/06 01:52:18;;;;;;;8.93;2.40;;;;;;;2.05;65.90;101437.72;6274933;22;20090;-68
2023/01/06 01:54:47;;;;;;;11.07;2.50;;;;;;;2.40;65.07;101427.72;6274873;22;20099;-66
2023/01/06 01:57:20;;;;;;;7.30;2.25;;;;;;;2.43;65.31;101412.50;6275064;22;20047;-67
2023/01/06 01:59:46;;;;;;;14.82;2.78;;;;;;;2.41;65.09;101417.06;6275313;22;20027;-67
2023/01/06 02:02:15;;;;;;;11.45;2.60;;;;;;;2.54;64.19;101411.88;6275139;22;20050;-67
2023/01/06 02:04:46;;;;;;;12.27;2.50;;;;;;;2.61;64.84;101412.38;6275277;22;20020;-66
2023/01/06 02:07:13;;;;;;;12.45;3.05;;;;;;;2.61;64.44;101415.00;6274831;22;20020;-66
2023/01/06 02:09:56;;;;;;;21.85;2.40;;;;;;;2.45;65.00;101414.25;6276165;22;20028;-67
2023/01/06 02:12:23;;;;;;;9.10;2.53;;;;;;;2.18;65.55;101412.25;6274426;22;20385;-66
2023/01/06 02:14:49;;;;;;;11.63;2.92;;;;;;;2.34;66.13;101417.50;6275020;22;20030;-67
2023/01/06 02:17:43;;;;;;;10.23;2.45;;;;;;;2.36;65.59;101415.63;6274806;22;20022;-67
2023/01/06 02:20:33;;;;;;;10.43;2.15;;;;;;;2.56;65.01;101403.84;6275189;22;20011;-66
2023/01/06 02:23:30;;;;;;;13.45;2.65;;;;;;;2.59;65.07;101401.03;6274801;22;20030;-68
2023/01/06 02:26:18;;;;;;;14.10;2.28;;;;;;;2.46;65.55;101394.75;6274787;22;20034;-66
2023/01/06 02:29:15;;;;;;;7.18;2.15;;;;;;;2.67;65.00;101385.50;6274629;22;20026;-67
2023/01/06 02:32:20;;;;;;;4.00;1.45;;;;;;;2.88;64.09;101381.53;6274658;22;20019;-66
2023/01/06 02:35:21;;;;;;;11.93;2.30;;;;;;;3.07;63.85;101391.88;6274307;22;20087;-68
2023/01/06 02:38:04;;;;;;;10.98;2.50;;;;;;;3.32;62.80;101383.22;6242656;22;20027;-68
2023/01/06 02:40:33;;;;;;;9.13;2.03;;;;;;;3.17;63.54;101389.53;6274791;22;20110;-67
2023/01/06 02:43:13;;;;;;;8.50;2.47;;;;;;;3.05;63.46;101384.97;6276592;22;20027;-68
2023/01/06 02:46:08;;;;;;;5.72;1.70;;;;;;;2.79;64.17;101379.47;6275638;22;20094;-68
2023/01/06 02:49:00;;;;;;;5.55;2.42;;;;;;;2.93;64.28;101377.75;6275599;22;20016;-66
2023/01/06 02:51:40;;;;;;;8.50;1.90;;;;;;;3.03;63.31;101373.59;6276476;22;20024;-68
2023/01/06 02:54:57;;;;;;;8.38;1.92;;;;;;;3.22;63.28;101360.91;6276119;22;20016;-67
2023/01/06 02:57:30;;;;;;;10.27;1.90;;;;;;;3.18;63.25;101385.91;6152351;23;20021;-66
2023/01/06 03:00:13;;;;;;;11.13;2.05;;;;;;;3.23;62.89;101372.34;6153593;23;20029;-67
2023/01/06 03:02:44;;;;;;;5.90;1.63;;;;;;;2.93;63.39;101369.81;6153162;23;20021;-67
2023/01/06 03:05:15;;;;;;;8.73;2.03;;;;;;;3.18;63.29;101369.16;6152771;23;20028;-68
2023/01/06 03:07:44;;;;;;;6.65;1.77;;;;;;;2.95;63.75;101389.13;6153409;23;20120;-66
2023/01/06 03:10:15;;;;;;;6.97;1.73;;;;;;;3.13;62.65;101375.59;6152621;23;20411;-66
2023/01/06 03:12:59;;;;;;;8.83;1.87;;;;;;;3.03;63.51;101365.63;6152718;23;20100;-66
2023/01/06 03:15:25;;;;;;;8.52;1.98;;;;;;;3.05;62.88;101372.56;6152922;23;20032;-66
2023/01/06 03:17:52;;;;;;;4.20;1.30;;;;;;;2.97;62.90;101360.75;6151593;23;20043;-66
2023/01/06 03:20:19;;;;;;;5.80;1.48;;;;;;;2.97;63.42;101364.25;6153199;23;20017;-66
2023/01/06 03:22:46;;;;;;;7.20;1.80;;;;;;;2.71;63.92;101347.28;6152193;23;20025;-66
2023/01/06 03:25:13;;;;;;;4.13;1.40;;;;;;;2.69;64.31;101346.53;6150061;23;20096;-67
2023/01/06 03:27:40;;;;;;;10.07;1.85;;;;;;;2.62;63.87;101345.22;6195358;22;20348;-66
2023/01/06 03:30:09;;;;;;;7.32;1.63;;;;;;;2.89;63.59;101343.53;6274673;22;20020;-66
2023/01/06 03:32:54;;;;;;;13.07;1.80;;;;;;;2.60;64.84;101344.44;6256480;22;20386;-67
2023/01/06 03:36:07;;;;;;;14.02;1.75;;;;;;;2.65;64.88;101337.06;6244435;23;20095;-67
2023/01/06 03:39:15;;;;;;;4.82;1.30;;;;;;;2.60;64.88;101332.06;6122637;23;20030;-67
2023/01/06 03:44:49;;;;;;;8.00;1.90;;;;;;;2.43;65.74;101326.94;6122082;23;20030;-67
2023/01/06 03:47:37;;;;;;;8.27;1.83;;;;;;;2.50;65.79;101328.25;6121749;23;20018;-66
2023/01/06 03:50:16;;;;;;;8.85;1.63;;;;;;;2.07;67.51;101317.59;6123020;23;20082;-67
2023/01/06 03:52:54;;;;;;;7.63;1.67;;;;;;;2.45;66.04;101321.56;6122159;23;20026;-67
2023/01/06 03:55:28;;;;;;;5.95;1.90;;;;;;;2.34;66.05;101316.88;6121253;23;20026;-66
2023/01/06 03:57:58;;;;;;;8.18;1.92;;;;;;;2.44;66.69;101304.78;6123049;23;20030;-67
2023/01/06 04:00:31;;;;;;;7.43;1.48;;;;;;;2.52;66.70;101301.69;6122367;23;20018;-67
2023/01/06 04:02:58;;;;;;;8.43;1.42;;;;;;;2.43;66.38;101305.75;6122708;23;20037;-66
2023/01/06 04:05:27;;;;;;;5.93;1.42;;;;;;;2.40;66.60;101308.56;6122369;23;20038;-67
2023/01/06 04:07:54;;;;;;;7.38;1.52;;;;;;;2.29;66.59;101311.03;6122456;23;20108;-66
2023/01/06 04:10:22;;;;;;;12.80;1.58;;;;;;;2.67;65.88;101311.34;6123041;23;20024;-68
2023/01/06 04:12:49;;;;;;;5.05;1.30;;;;;;;2.43;66.61;101303.94;6193741;23;20028;-67
2023/01/06 04:15:19;;;;;;;7.32;1.55;;;;;;;2.41;66.67;101311.13;6245052;23;20533;-67
2023/01/06 04:17:46;;;;;;;6.03;1.38;;;;;;;2.50;66.67;101306.22;6244367;23;20103;-66
2023/01/06 04:20:19;;;;;;;15.20;1.85;;;;;;;2.84;65.92;101300.53;6242225;23;20413;-67
2023/01/06 04:22:46;;;;;;;9.27;1.65;;;;;;;2.77;66.07;101299.22;6218493;23;20042;-66
2023/01/06 04:25:12;;;;;;;4.47;1.42;;;;;;;2.60;65.98;101297.63;6244038;23;20111;-67
2023/01/06 04:27:39;;;;;;;6.53;1.63;;;;;;;2.67;66.31;101290.13;6245105;23;20357;-67
2023/01/06 04:30:06;;;;;;;7.72;1.52;;;;;;;2.71;66.24;101289.00;6217564;23;20031;-68
2023/01/06 04:32:32;;;;;;;8.95;1.88;;;;;;;2.73;65.80;101284.47;6244770;22;20035;-68
2023/01/06 04:34:59;;;;;;;9.93;1.77;;;;;;;2.83;66.25;101279.44;6245393;23;20024;-67
2023/01/06 04:37:25;;;;;;;8.57;1.92;;;;;;;2.74;65.91;101285.31;6244254;23;20031;-67
2023/01/06 04:39:52;;;;;;;14.60;2.35;;;;;;;3.08;65.18;101281.38;6242680;23;20331;-67
2023/01/06 04:42:18;;;;;;;9.90;2.42;;;;;;;2.98;66.00;101277.63;6241296;23;20528;-67
2023/01/06 04:44:45;;;;;;;7.53;1.80;;;;;;;3.03;65.79;101271.09;6242967;23;20408;-67
2023/01/06 04:47:11;;;;;;;11.20;1.52;;;;;;;3.06;65.85;101270.03;6244760;23;20098;-67
2023/01/06 04:49:38;;;;;;;4.30;1.55;;;;;;;3.10;65.62;101272.41;6242116;23;20040;-68
2023/01/06 04:52:05;;;;;;;10.20;1.90;;;;;;;2.77;66.71;101254.19;6242356;23;20020;-67
2023/01/06 04:54:32;;;;;;;5.80;1.65;;;;;;;2.84;66.72;101254.66;6239042;23;20051;-67
2023/01/06 04:56:58;;;;;;;5.25;1.73;;;;;;;2.57;67.88;101239.53;6243593;23;20026;-67
2023/01/06 04:59:25;;;;;;;5.70;1.65;;;;;;;2.55;67.86;101235.28;6241877;23;20095;-67
2023/01/06 05:01:51;;;;;;;12.27;1.67;;;;;;;2.75;67.69;101236.66;6240841;23;20061;-67
2023/01/06 05:04:18;;;;;;;8.30;1.63;;;;;;;2.63;67.97;101231.19;6243799;23;20020;-67
2023/01/06 05:06:45;;;;;;;8.25;1.83;;;;;;;2.60;68.87;101233.19;6243812;23;20516;-66
2023/01/06 05:09:11;;;;;;;8.85;1.85;;;;;;;2.58;69.42;101225.34;6242963;23;20016;-68
2023/01/06 05:11:38;;;;;;;11.43;1.60;;;;;;;2.29;69.91;101221.00;6243887;23;20035;-67
2023/01/06 05:14:04;;;;;;;10.82;1.80;;;;;;;2.30;70.58;101218.25;6243370;23;20054;-67
2023/01/06 05:16:33;;;;;;;15.73;2.35;;;;;;;2.22;71.96;101225.81;6241967;23;20450;-67
2023/01/06 05:19:00;;;;;;;15.45;2.40;;;;;;;2.04;72.06;101219.84;6241862;23;20408;-67
2023/01/06 05:21:28;;;;;;;15.27;2.67;;;;;;;2.27;71.91;101221.13;6240956;23;20023;-68
2023/01/06 05:23:58;;;;;;;8.90;2.22;;;;;;;2.26;72.40;101224.69;6241679;23;20031;-68
2023/01/06 05:26:26;;;;;;;9.27;1.98;;;;;;;2.03;73.70;101227.91;6241796;23;20330;-69
2023/01/06 05:28:53;;;;;;;13.30;2.30;;;;;;;2.19;72.84;101220.72;6243346;23;20027;-67
2023/01/06 05:31:20;;;;;;;8.98;2.15;;;;;;;2.09;74.06;101224.84;6241993;22;20020;-68
2023/01/06 05:33:46;;;;;;;12.43;2.47;;;;;;;2.22;73.73;101222.31;6241341;23;20075;-68
2023/01/06 05:36:15;;;;;;;9.43;2.45;;;;;;;2.30;73.95;101210.31;6241101;23;20461;-68
2023/01/06 05:38:42;;;;;;;8.95;2.40;;;;;;;2.22;74.17;101201.16;6243940;23;20100;-69
2023/01/06 05:41:09;;;;;;;12.07;2.53;;;;;;;2.15;74.80;101205.97;6244888;23;20394;-68
2023/01/06 05:43:36;;;;;;;15.77;2.63;;;;;;;2.10;75.00;101202.75;6243184;23;20021;-66
2023/01/06 05:46:07;;;;;;;8.93;2.75;;;;;;;2.04;75.22;101197.84;6244596;23;20028;-67
2023/01/06 05:48:34;;;;;;;15.25;2.80;;;;;;;2.16;75.65;101191.78;6243108;23;20024;-67
2023/01/06 05:51:08;;;;;;;14.52;3.85;;;;;;;2.16;75.57;101186.47;6240533;23;20024;-68
2023/01/06 05:53:37;;;;;;;10.15;2.83;;;;;;;2.23;75.77;101192.25;6244372;23;20104;-67
2023/01/06 05:56:06;;;;;;;11.23;3.00;;;;;;;2.29;75.46;101192.72;6244245;23;20378;-68
2023/01/06 05:58:33;;;;;;;17.10;3.25;;;;;;;2.45;75.34;101186.50;6242282;23;20457;-68
2023/01/06 06:01:01;;;;;;;12.52;4.00;;;;;;;2.40;75.73;101189.41;6241375;23;20055;-68
2023/01/06 06:03:27;;;;;;;7.53;3.20;;;;;;;2.12;76.36;101185.81;6242168;23;20034;-67
2023/01/06 06:05:54;;;;;;;15.80;3.78;;;;;;;2.77;74.44;101184.44;6241646;23;20024;-67
2023/01/06 06:08:20;;;;;;;9.50;3.22;;;;;;;2.57;74.96;101186.53;6243552;23;20520;-68
2023/01/06 06:10:47;;;;;;;17.23;3.95;;;;;;;2.59;75.17;101189.97;6244666;23;20048;-68
2023/01/06 06:13:13;;;;;;;15.15;3.65;;;;;;;2.51;75.92;101194.91;6240638;22;20030;-68
2023/01/06 06:15:40;;;;;;;15.15;4.05;;;;;;;2.71;75.87;101188.31;6244079;23;20107;-68
2023/01/06 06:18:06;;;;;;;18.55;3.85;;;;;;;2.61;75.60;101192.50;6246021;23;20330;-67
2023/01/06 06:20:33;;;;;;;10.23;3.53;;;;;;;3.03;74.42;101177.44;6243923;23;20348;-68
2023/01/06 06:22:59;;;;;;;9.40;3.50;;;;;;;2.33;75.49;101180.16;6244182;23;20035;-68
2023/01/06 06:25:28;;;;;;;16.42;4.18;;;;;;;2.60;76.84;101182.88;6243916;23;20030;-67
2023/01/06 06:27:58;;;;;;;14.98;3.97;;;;;;;2.38;77.12;101175.44;6246077;23;20024;-67
2023/01/06 06:30:25;;;;;;;26.75;5.38;;;;;;;2.35;77.47;101160.59;6243432;23;20020;-68
2023/01/06 06:32:51;;;;;;;26.00;4.30;;;;;;;2.24;78.86;101159.56;6266229;22;20116;-68
2023/01/06 06:35:18;;;;;;;18.40;4.80;;;;;;;2.12;78.95;101156.72;6273636;22;20071;-68
2023/01/06 06:37:44;;;;;;;21.05;5.00;;;;;;;2.23;80.02;101157.84;6276852;22;20348;-69
2023/01/06 06:40:11;;;;;;;16.25;4.70;;;;;;;2.07;80.39;101155.31;6277720;22;20040;-68
2023/01/06 06:42:37;;;;;;;19.63;4.93;;;;;;;2.30;80.27;101154.72;6276053;22;20091;-69
2023/01/06 06:45:04;;;;;;;15.25;5.07;;;;;;;2.38;79.81;101152.44;6276895;22;20455;-69
2023/01/06 06:47:31;;;;;;;16.45;5.88;;;;;;;2.43;80.57;101146.84;6274712;22;20015;-68
2023/01/06 06:49:57;;;;;;;25.65;6.32;;;;;;;2.32;80.37;101149.34;6276600;22;20026;-70
2023/01/06 06:52:24;;;;;;;17.88;5.78;;;;;;;2.31;80.23;101151.13;6276475;22;20020;-68
2023/01/06 06:54:50;;;;;;;18.38;5.72;;;;;;;2.48;81.27;101139.47;6251335;22;20050;-70
2023/01/06 06:57:17;;;;;;;16.08;6.20;;;;;;;2.42;81.37;101134.56;6276925;22;20316;-68
2023/01/06 06:59:43;;;;;;;17.65;6.40;;;;;;;2.62;80.56;101144.75;6279232;22;20027;-70
2023/01/06 07:02:10;;;;;;;20.60;7.45;;;;;;;2.48;81.20;101142.13;6278347;22;20022;-68
2023/01/06 07:04:36;;;;;;;21.30;7.50;;;;;;;2.55;81.33;101142.59;6276915;22;20271;-67
2023/01/06 07:07:03;;;;;;;23.45;6.30;;;;;;;2.22;82.19;101127.03;6278364;22;20031;-68
2023/01/06 07:09:29;;;;;;;17.13;6.43;;;;;;;2.51;81.95;101128.69;6274894;22;20090;-68
2023/01/06 07:11:56;;;;;;;22.02;7.45;;;;;;;2.28;83.47;101122.19;6276279;22;20098;-67
2023/01/06 07:14:22;;;;;;;23.67;7.90;;;;;;;2.11;83.30;101123.25;6278187;22;20022;-68
2023/01/06 07:16:49;;;;;;;22.75;8.15;;;;;;;2.36;82.98;101125.19;6275027;22;20550;-69
2023/01/06 07:19:15;;;;;;;21.98;8.40;;;;;;;2.30;83.38;101115.00;6277372;22;20432;-68
2023/01/06 07:21:42;;;;;;;31.38;9.20;;;;;;;2.50;83.06;101126.13;6278362;22;20401;-70
2023/01/06 07:24:08;;;;;;;23.05;8.50;;;;;;;2.58;82.47;101121.19;6276009;22;20111;-70
2023/01/06 07:26:35;;;;;;;25.55;9.20;;;;;;;2.43;82.84;101126.50;6278279;22;20043;-70
2023/01/06 07:29:01;;;;;;;23.05;9.35;;;;;;;2.38;83.21;101120.66;6275931;22;20028;-70
2023/01/06 07:31:28;;;;;;;25.65;9.05;;;;;;;2.32;83.85;101122.84;6273805;22;20035;-70
2023/01/06 07:33:55;;;;;;;24.30;9.40;;;;;;;2.40;83.94;101124.06;6217421;23;20020;-71
2023/01/06 07:36:21;;;;;;;39.90;15.35;;;;;;;2.77;83.34;101134.94;6243509;23;20360;-71
2023/01/06 07:38:48;;;;;;;28.15;11.93;;;;;;;2.83;82.47;101129.25;6243595;23;20027;-71
2023/01/06 07:41:14;;;;;;;29.35;12.05;;;;;;;2.87;82.38;101125.44;6243997;23;20445;-71
2023/01/06 07:43:41;;;;;;;26.95;10.50;;;;;;;2.77;82.44;101123.50;6245793;23;20349;-71
2023/01/06 07:46:08;;;;;;;38.70;14.35;;;;;;;3.06;82.17;101134.81;6243990;23;20103;-71
2023/01/06 07:48:35;;;;;;;27.75;11.50;;;;;;;3.02;82.30;101138.63;6242966;23;20027;-70
2023/01/06 07:51:02;;;;;;;28.02;12.02;;;;;;;2.81;82.14;101125.84;6244523;23;20023;-71
2023/01/06 07:53:31;;;;;;;30.30;11.30;;;;;;;2.77;82.53;101134.94;6244740;23;20024;-71
2023/01/06 07:55:58;;;;;;;29.17;12.73;;;;;;;2.90;82.48;101137.66;6241466;23;20472;-72
2023/01/06 07:58:25;;;;;;;31.40;12.27;;;;;;;2.89;82.92;101125.34;6244998;23;20026;-70
2023/01/06 08:00:51;;;;;;;31.58;12.63;;;;;;;2.97;82.69;101132.81;6243448;23;20017;-71
2023/01/06 08:03:18;;;;;;;30.45;12.55;;;;;;;2.59;83.37;101122.91;6241846;23;20020;-71
2023/01/06 08:05:44;;;;;;;29.40;12.23;;;;;;;2.57;84.17;101107.09;6246052;23;20100;-71
2023/01/06 08:08:11;;;;;;;34.60;12.35;;;;;;;2.96;83.60;101107.22;6246193;23;20462;-71
2023/01/06 08:10:39;;;;;;;38.47;13.02;;;;;;;3.15;82.38;101123.63;6245011;23;20074;-71
2023/01/06 08:13:06;;;;;;;30.55;12.77;;;;;;;3.05;83.25;101112.78;6245367;23;20031;-71
2023/01/06 08:15:34;;;;;;;32.70;13.70;;;;;;;3.20;82.77;101102.94;6244813;23;20468;-71
2023/01/06 08:18:01;;;;;;;29.70;13.55;;;;;;;3.38;81.95;101107.03;6244304;23;20028;-71
2023/01/06 08:20:27;;;;;;;29.35;14.85;;;;;;;2.91;83.61;101103.09;6245481;23;20361;-71
2023/01/06 08:22:56;;;;;;;34.10;13.90;;;;;;;3.05;83.86;101086.28;6245607;23;20095;-71
2023/01/06 08:25:23;;;;;;;30.50;15.23;;;;;;;2.89;83.86;101099.72;6244998;23;20356;-71
2023/01/06 08:27:49;;;;;;;31.80;14.20;;;;;;;3.23;83.27;101101.91;6244643;23;20116;-71
2023/01/06 08:30:20;;;;;;;38.03;16.25;;;;;;;2.96;83.40;101086.88;6243917;23;20181;-71
2023/01/06 08:32:48;;;;;;;37.33;15.48;;;;;;;2.91;84.51;101075.75;6244205;22;20412;-70
2023/01/06 08:35:15;;;;;;;36.92;16.80;;;;;;;3.10;84.17;101072.69;6245687;23;20058;-71
2023/01/06 08:37:41;;;;;;;27.40;15.38;;;;;;;3.18;84.55;101070.41;6243111;23;20020;-69
2023/01/06 08:40:08;;;;;;;31.25;16.20;;;;;;;3.00;84.45;101076.94;6244117;23;20107;-69
2023/01/06 08:42:34;;;;;;;32.58;16.30;;;;;;;2.91;85.03;101078.41;6244743;23;20031;-69
2023/01/06 08:45:01;;;;;;;38.25;17.65;;;;;;;3.46;83.74;101087.09;6244357;23;20024;-69
2023/01/06 08:47:27;;;;;;;40.60;17.90;;;;;;;3.03;84.23;101066.09;6244200;23;20020;-69
2023/01/06 08:49:54;;;;;;;49.00;18.42;;;;;;;3.22;84.19;101066.56;6244420;23;20520;-70
2023/01/06 08:52:20;;;;;;;33.70;17.88;;;;;;;3.43;83.74;101061.59;6243891;23;20024;-69
2023/01/06 08:54:47;;;;;;;49.33;17.73;;;;;;;3.42;82.67;101067.03;6243338;23;20352;-69
2023/01/06 08:57:15;;;;;;;44.78;19.52;;;;;;;3.27;84.11;101058.31;6245264;23;20024;-69
2023/01/06 08:59:41;;;;;;;43.65;18.38;;;;;;;3.49;84.08;101057.69;6244454;23;20036;-70
2023/01/06 09:02:09;;;;;;;49.97;19.85;;;;;;;3.42;83.82;101049.31;6243742;23;20028;-68
2023/01/06 09:04:36;;;;;;;48.95;19.63;;;;;;;3.53;83.77;101052.06;6242926;23;20332;-69
2023/01/06 09:07:02;;;;;;;38.60;20.45;;;;;;;3.56;83.74;101049.19;6243999;23;20023;-68
2023/01/06 09:09:29;;;;;;;44.88;20.58;;;;;;;3.72;83.49;101053.41;6244014;23;20020;-69
2023/01/06 09:11:56;;;;;;;48.38;20.10;;;;;;;3.54;83.12;101055.56;6215192;23;20027;-68
2023/01/06 09:14:23;;;;;;;48.63;19.38;;;;;;;3.71;83.38;101063.19;6244380;23;20020;-68
2023/01/06 09:16:50;;;;;;;47.10;20.10;;;;;;;3.70;82.93;101069.47;6242872;22;20028;-69
2023/01/06 09:19:16;;;;;;;45.20;19.50;;;;;;;3.86;82.70;101080.72;6245229;23;20035;-69
2023/01/06 09:21:44;;;;;;;40.25;20.42;;;;;;;3.93;82.36;101077.59;6245532;23;20408;-69
2023/01/06 09:24:13;;;;;;;50.65;20.67;;;;;;;4.03;82.07;101066.22;6243870;23;20082;-70
2023/01/06 09:26:39;;;;;;;56.08;21.25;;;;;;;3.77;83.20;101054.81;6244832;23;20108;-70
2023/01/06 09:29:06;;;;;;;44.67;22.10;;;;;;;3.83;83.07;101038.47;6217182;23;20055;-70
2023/01/06 09:31:34;;;;;;;44.97;19.90;;;;;;;3.71;83.26;101036.66;6244568;22;20024;-71
2023/01/06 09:34:01;;;;;;;41.00;19.15;;;;;;;3.85;82.67;101038.34;6242287;23;20095;-71
2023/01/06 09:36:27;;;;;;;42.38;20.15;;;;;;;3.98;82.48;101054.25;6243175;23;20098;-71
2023/01/06 09:38:54;;;;;;;45.03;20.30;;;;;;;4.20;82.54;101053.53;6244072;23;20024;-72
2023/01/06 09:41:48;;;;;;;42.40;19.77;;;;;;;4.17;82.49;101038.66;6242933;23;20016;-71
2023/01/06 09:44:53;;;;;;;42.25;19.27;;;;;;;4.20;82.75;101038.44;6242290;23;20040;-71
2023/01/06 09:47:43;;;;;;;36.80;19.40;;;;;;;4.09;82.71;101027.75;6221695;23;20027;-71
2023/01/06 09:50:19;;;;;;;42.15;19.48;;;;;;;4.12;82.66;101014.28;6241468;23;20031;-71
2023/01/06 09:53:12;;;;;;;40.25;17.85;;;;;;;4.01;82.96;101019.53;6242855;23;20020;-71
2023/01/06 09:55:51;;;;;;;37.08;18.55;;;;;;;4.16;83.46;101010.44;6243532;23;20020;-72
2023/01/06 09:58:22;;;;;;;37.20;18.52;;;;;;;4.26;82.49;101005.31;6216115;23;20488;-71
2023/01/06 10:00:52;;;;;;;43.13;18.08;;;;;;;4.39;82.71;100994.66;6243247;23;20044;-71
2023/01/06 10:03:20;;;;;;;43.78;18.83;;;;;;;4.14;82.77;101004.41;6243073;23;20108;-71
2023/01/06 10:05:50;;;;;;;49.45;18.55;;;;;;;4.12;83.39;100989.53;6241750;23;20111;-70
2023/01/06 10:08:55;;;;;;;41.97;17.90;;;;;;;4.19;83.61;100986.31;6243322;23;20024;-71
2023/01/06 10:11:48;;;;;;;50.42;17.90;;;;;;;4.58;82.48;100981.69;6149910;23;20022;-71
2023/01/06 10:14:39;;;;;;;29.83;17.33;;;;;;;4.22;83.05;100975.47;6146480;23;20021;-71
2023/01/06 10:17:57;;;;;;;36.80;17.00;;;;;;;4.49;83.13;100977.09;6150116;23;20052;-72
2023/01/06 10:20:26;;;;;;;31.75;15.20;;;;;;;4.57;82.85;100969.38;6033387;23;20475;-70
2023/01/06 10:22:58;;;;;;;33.55;16.50;;;;;;;4.58;82.32;100973.72;6033240;23;20023;-70
2023/01/06 10:25:45;;;;;;;28.15;16.42;;;;;;;4.63;82.83;100960.94;6027989;23;20074;-70
2023/01/06 10:28:30;;;;;;;29.80;16.15;;;;;;;4.82;82.06;100955.91;6034403;23;20023;-71
2023/01/06 10:31:04;;;;;;;35.00;16.92;;;;;;;4.90;82.52;100962.44;6034039;23;20401;-71
2023/01/06 10:33:36;;;;;;;34.75;17.58;;;;;;;5.00;82.17;100960.78;6033686;23;20051;-71
2023/01/06 10:36:03;;;;;;;;;;;;;;;4.91;82.29;100958.84;6034579;23;20114;-72
2023/01/06 10:38:34;;;;;;;32.53;16.00;;;;;;;5.00;82.31;100951.00;6062611;23;20042;-71
2023/01/06 10:41:04;;;;;;;;;;;;;;;4.96;82.58;100940.72;6062133;23;20054;-71
2023/01/06 10:43:31;;;;;;;28.52;15.73;;;;;;;5.03;82.63;100931.28;6062778;23;20035;-71
2023/01/06 10:45:59;;;;;;;29.88;17.45;;;;;;;5.03;82.99;100940.13;6104152;23;20101;-71
2023/01/06 10:48:29;;;;;;;33.97;16.52;;;;;;;5.26;82.26;100932.16;6118920;23;20022;-71
2023/01/06 10:50:56;;;;;;;33.22;17.67;;;;;;;5.26;82.66;100941.00;6119968;23;20029;-71
2023/01/06 10:53:23;;;;;;;32.83;15.85;;;;;;;5.32;82.75;100925.50;6140503;23;20095;-70
2023/01/06 10:55:53;;;;;;;38.63;18.42;;;;;;;5.40;82.52;100926.59;6241770;23;20028;-71
2023/01/06 10:58:22;;;;;;;29.17;17.23;;;;;;;5.34;82.21;100931.56;6242606;23;20020;-71
2023/01/06 11:00:59;;;;;;;29.80;16.42;;;;;;;5.39;82.18;100932.91;6242829;23;20028;-71
2023/01/06 11:03:27;;;;;;;29.25;16.02;;;;;;;5.54;82.22;100928.16;6244100;23;20099;-72
2023/01/06 11:06:05;;;;;;;25.02;14.73;;;;;;;5.56;81.97;100931.56;6243031;23;20400;-72
2023/01/06 11:08:33;;;;;;;27.65;15.52;;;;;;;5.64;81.95;100930.94;6243455;23;20023;-72
2023/01/06 11:10:59;;;;;;;31.05;16.17;;;;;;;5.45;82.69;100918.25;6243824;23;20032;-71
2023/01/06 11:13:26;;;;;;;28.90;15.68;;;;;;;5.59;82.58;100915.31;6242461;23;20457;-71
2023/01/06 11:15:54;;;;;;;27.95;16.02;;;;;;;5.50;82.47;100918.75;6243568;23;20026;-71
2023/01/06 11:18:24;;;;;;;33.97;16.65;;;;;;;5.69;82.36;100920.75;6244342;23;20020;-71
2023/01/06 11:21:10;;;;;;;29.25;15.35;;;;;;;5.72;82.18;100901.88;6243931;23;20028;-70
2023/01/06 11:23:39;;;;;;;25.98;14.90;;;;;;;5.71;81.87;100903.69;6244207;23;20063;-71
2023/01/06 11:26:13;;;;;;;25.88;15.32;;;;;;;5.68;82.08;100895.97;6244391;23;20461;-72
2023/01/06 11:28:41;;;;;;;26.95;14.73;;;;;;;5.64;82.71;100894.53;6243641;23;20020;-71
2023/01/06 11:31:13;;;;;;;27.85;15.02;;;;;;;5.73;82.14;100896.44;6242808;23;20357;-71
2023/01/06 11:33:59;;;;;;;33.85;15.95;;;;;;;5.83;81.92;100890.34;6274512;22;20031;-71
2023/01/06 11:36:29;;;;;;;28.02;14.80;;;;;;;5.96;81.86;100899.03;6274060;22;20098;-71
2023/01/06 11:39:00;;;;;;;28.52;15.68;;;;;;;5.82;82.08;100886.00;6274362;22;20024;-71
2023/01/06 11:41:34;;;;;;;35.27;17.77;;;;;;;5.92;81.63;100897.59;6274620;22;20023;-71
2023/01/06 11:44:21;;;;;;;33.35;17.20;;;;;;;5.83;82.33;100879.72;6273118;22;20046;-71